Flight Track Log - Related Links

Times and Time Zones

All times are in EDT time to prevent confusion due to time zone crossing. See the N842CP flight status page for this flight to view local times or setup timezone preferences in your user account.

Time Position Orientation Groundspeed Altitude Reporting Facility
EDT Latitude Longitude Course Direction KTS MPH feet Rate Location/Type
Thu 12:43:11 PM 36.1611 -119.3683 159° South 122 140 4,800  Level Oakland Center
Thu 12:44:12 PM 36.1272 -119.3550 162° South 127 146 5,700 829 Climbing Oakland Center
Thu 12:45:14 PM 36.0814 -119.3361 162° South 147 169 6,500 732 Climbing Oakland Center
Thu 12:46:00 PM 36.0324 -119.2798 171° South  Level FlightAware
Thu 12:46:15 PM 36.0406 -119.3197 162° South 155 178 7,200  Level Oakland Center
Thu 12:47:00 PM 35.9835 -119.2700 171° South  Level FlightAware
Thu 12:47:17 PM 35.9981 -119.3039 163° South 160 184 7,900  Level Oakland Center
Thu 12:48:18 PM 35.9550 -119.2881 163° South 160 184 8,600 537 Climbing Oakland Center
Thu 12:49:20 PM 35.9128 -119.2706 161° South 161 185 9,000 194 Climbing Oakland Center
Thu 12:50:22 PM 35.8675 -119.2525 162° South 163 188 9,000  Level Oakland Center
Thu 12:51:23 PM 35.8214 -119.2342 162° South 168 193 9,000  Level Oakland Center
Thu 12:52:25 PM 35.7772 -119.2158 161° South 169 194 9,000  Level Oakland Center
Thu 12:53:26 PM 35.7228 -119.1939 162° South 170 196 9,000  Level Oakland Center
Thu 12:54:28 PM 35.6786 -119.1753 161° South 169 194 9,000 146 Level Oakland Center
Thu 12:55:29 PM 35.6364 -119.1553 159° South 167 192 9,300 424 Climbing Oakland Center
Thu 12:57:46 PM 35.5650 -119.0886 143° Southeast 147 169 10,400 482 Climbing Los Center
Thu 12:58:48 PM 35.5314 -119.0597 145° Southeast 148 170 10,900 290 Climbing Los Center
Thu 12:59:50 PM 35.4967 -119.0278 143° Southeast 153 176 11,000 48 Climbing Los Center
Thu 01:00:52 PM 35.4469 -118.9853 145° Southeast 173 199 11,000  Level Los Center
Thu 01:01:54 PM 35.4061 -118.9486 144° Southeast 180 207 11,000  Level Los Center
Thu 01:02:56 PM 35.3644 -118.9131 145° Southeast 181 208 11,000  Level Los Center
Thu 01:03:58 PM 35.3233 -118.8753 143° Southeast 183 211 11,000  Level Los Center
Thu 01:05:00 PM 35.2817 -118.8403 146° Southeast 182 209 11,000  Level Los Center
Thu 01:06:02 PM 35.2331 -118.7978 144° Southeast 180 207 11,000  Level Los Center
Thu 01:07:05 PM 35.1911 -118.7617 145° Southeast 182 209 11,000 96 Level Los Center
Thu 01:08:07 PM 35.1528 -118.7222 140° Southeast 182 209 11,200 97 Climbing Los Center
Thu 01:09:09 PM 35.1178 -118.6811 136° Southeast 177 204 11,200 -48 Level Los Center
Thu 01:10:11 PM 35.0800 -118.6400 138° Southeast 180 207 11,100 -97 Descending Los Center
Thu 01:11:13 PM 35.0414 -118.5969 138° Southeast 187 215 11,000 -48 Descending Los Center
Thu 01:12:15 PM 35.0000 -118.5475 136° Southeast 176 203 11,000  Level Los Center
Thu 01:13:17 PM 34.9669 -118.5022 132° Southeast 177 204 11,000  Level Los Center
Thu 01:14:19 PM 34.9381 -118.4650 133° Southeast 175 201 11,000  Level Los Center
Thu 01:15:21 PM 34.8975 -118.4117 133° Southeast 178 205 11,000  Level Los Center
Thu 01:16:23 PM 34.8647 -118.3683 133° Southeast 176 203 11,000  Level Los Center
Thu 01:17:26 PM 34.8303 -118.3244 134° Southeast 178 205 11,000  Level Los Center
Thu 01:18:28 PM 34.7964 -118.2797 133° Southeast 179 206 11,000  Level Los Center
Thu 01:19:30 PM 34.7625 -118.2350 133° Southeast 180 207 11,000  Level Los Center
Thu 01:20:32 PM 34.7219 -118.1811 132° Southeast 180 207 11,000  Level Los Center
Thu 01:21:34 PM 34.6869 -118.1378 134° Southeast 180 207 11,000  Level Los Center
Thu 01:22:36 PM 34.6511 -118.0906 133° Southeast 189 217 11,000  Level Los Center
Thu 01:23:38 PM 34.6292 -118.0419 119° Southeast 178 205 11,000  Level Los Center
Thu 01:24:40 PM 34.6242 -117.9853 96° East 171 197 11,000  Level Los Center
Thu 01:25:42 PM 34.6172 -117.9158 97° East 172 198 11,000  Level Los Center
Thu 01:26:44 PM 34.6125 -117.8583 96° East 172 198 11,000  Level Los Center
Thu 01:27:46 PM 34.6072 -117.8014 96° East 171 197 11,000  Level Los Center
Thu 01:28:49 PM 34.6022 -117.7436 96° East 172 198 11,000  Level Los Center
Thu 01:29:51 PM 34.5972 -117.6856 96° East 174 200 11,000  Level Los Center
Thu 01:30:53 PM 34.5917 -117.6292 97° East 171 197 11,000  Level Los Center
Thu 01:31:55 PM 34.5858 -117.5603 96° East 172 198 11,000  Level Los Center
Thu 01:32:57 PM 34.5797 -117.5033 97° East 171 197 11,000  Level Los Center
Thu 01:34:11 PM 34.5739 -117.4350 96° East 171 197 11,000  Level Los Center
Thu 01:35:14 PM 34.5692 -117.3789 96° East 170 196 11,000  Level Los Center
Thu 01:36:16 PM 34.5642 -117.3208 96° East 171 197 11,000  Level Los Center
Thu 01:37:18 PM 34.5572 -117.2547 97° East 169 194 11,000  Level Los Center
Thu 01:38:20 PM 34.5522 -117.1989 96° East 168 193 11,000  Level Los Center
Thu 01:39:22 PM 34.5478 -117.1433 96° East 167 192 11,000  Level Los Center
Thu 01:40:24 PM 34.5417 -117.0914 98° East 163 188 11,000  Level Los Center
Thu 01:41:26 PM 34.5361 -117.0375 97° East 161 185 11,000  Level Los Center
Thu 01:42:28 PM 34.5308 -116.9717 96° East 163 188 11,000  Level Los Center
Thu 01:43:30 PM 34.5247 -116.9181 98° East 162 186 11,000  Level Los Center
Thu 01:44:32 PM 34.5200 -116.8639 96° East 162 186 11,000  Level Los Center
Thu 01:45:34 PM 34.5150 -116.8094 96° East 163 188 11,000  Level Los Center
Thu 01:46:37 PM 34.5097 -116.7558 97° East 161 185 11,000  Level Los Center
Thu 01:47:39 PM 34.5053 -116.7017 96° East 161 185 11,000  Level Los Center
Thu 01:48:41 PM 34.4619 -116.6625 143° Southeast 187 215 11,000  Level Los Center
Thu 01:49:43 PM 34.4150 -116.6422 160° South 183 211 11,000 -97 Level Los Center
Thu 01:50:45 PM 34.3667 -116.6233 162° South 184 212 10,800 -97 Descending Los Center
Thu 01:51:47 PM 34.3167 -116.6044 163° South 188 216 10,800  Level Los Center
Thu 01:52:49 PM 34.2678 -116.5847 162° South 188 216 10,800 48 Level Los Center
Thu 01:53:51 PM 34.2433 -116.5378 122° Southeast 178 205 10,900 48 Climbing Los Center
Thu 01:54:53 PM 34.2211 -116.4753 113° Southeast 172 198 10,900  Level Los Center
Thu 01:55:55 PM 34.2014 -116.4228 114° Southeast 171 197 10,900  Level Los Center
Thu 01:56:57 PM 34.1847 -116.3672 110° East 173 199 10,900  Level Los Center
Thu 01:58:00 PM 34.1686 -116.3156 111° Southeast 169 194 10,900  Level Los Center
Thu 01:59:02 PM 34.1550 -116.2603 107° East 170 196 10,900  Level Los Center
Thu 02:00:04 PM 34.1383 -116.1947 107° East 171 197 10,900  Level Los Center
Thu 02:01:06 PM 34.1244 -116.1372 106° East 170 196 10,900  Level Los Center
Thu 02:02:08 PM 34.1097 -116.0839 108° East 169 194 10,900  Level Los Center
Thu 02:03:10 PM 34.0961 -116.0294 107° East 170 196 10,900  Level Los Center
Thu 02:04:12 PM 34.0836 -115.9769 106° East 166 191 10,900  Level Los Center
Thu 02:05:14 PM 34.0694 -115.9239 108° East 166 191 10,900  Level Los Center
Thu 02:06:16 PM 34.0550 -115.8692 108° East 169 194 10,900  Level Los Center
Thu 02:07:18 PM 34.0386 -115.8044 107° East 169 194 10,900  Level Los Center
Thu 02:08:20 PM 34.0239 -115.7492 108° East 171 197 10,900  Level Los Center
Thu 02:09:23 PM 34.0100 -115.6947 107° East 171 197 10,900  Level Los Center
Thu 02:10:25 PM 33.9950 -115.6403 108° East 171 197 10,900  Level Los Center
Thu 02:11:27 PM 33.9819 -115.5864 106° East 170 196 10,900  Level Los Center
Thu 02:12:29 PM 33.9678 -115.5347 108° East 167 192 10,900  Level Los Center
Thu 02:13:31 PM 33.9511 -115.4717 108° East 166 191 10,900  Level Los Center
Thu 02:14:33 PM 33.9375 -115.4197 108° East 164 189 10,900  Level Los Center
Thu 02:15:35 PM 33.9231 -115.3647 108° East 168 193 10,900  Level Los Center
Thu 02:16:37 PM 33.9094 -115.3117 107° East 168 193 10,900  Level Los Center
Thu 02:17:39 PM 33.8942 -115.2592 109° East 167 192 10,900  Level Los Center
Thu 02:18:42 PM 33.8814 -115.2058 106° East 166 191 10,900  Level Los Center
Thu 02:19:44 PM 33.8636 -115.1406 108° East 169 194 10,900 48 Level Los Center
Thu 02:20:46 PM 33.8497 -115.0872 107° East 169 194 11,000 48 Climbing Los Center
Thu 02:21:48 PM 33.8347 -115.0311 108° East 173 199 11,000  Level Los Center
Thu 02:22:50 PM 33.8200 -114.9786 109° East 169 194 11,000  Level Los Center
Thu 02:23:52 PM 33.8058 -114.9250 108° East 169 194 11,000  Level Los Center
Thu 02:24:54 PM 33.7908 -114.8694 108° East 173 199 11,000  Level Los Center
Thu 02:25:56 PM 33.7744 -114.8047 107° East 169 194 11,000  Level Los Center
Thu 02:26:58 PM 33.7589 -114.7500 109° East 171 197 11,000  Level Los Center
Thu 02:28:00 PM 33.7436 -114.6931 108° East 177 204 11,000  Level Los Center
Thu 02:29:03 PM 33.7286 -114.6367 108° East 178 205 11,000  Level Los Center
Thu 02:30:05 PM 33.7133 -114.5811 108° East 176 203 11,000  Level Los Center
Thu 02:31:07 PM 33.6956 -114.5169 108° East 171 197 11,000  Level Los Center
Thu 02:32:09 PM 33.6819 -114.4625 107° East 171 197 11,000  Level Los Center
Thu 02:33:11 PM 33.6658 -114.4083 110° East 173 199 11,000  Level Los Center
Thu 02:34:13 PM 33.6511 -114.3522 107° East 175 201 11,000  Level Los Center
Thu 02:35:15 PM 33.6358 -114.2986 109° East 172 198 11,000  Level Los Center
Thu 02:36:17 PM 33.6206 -114.2422 108° East 176 203 11,000 48 Level Los Center
Thu 02:37:20 PM 33.6031 -114.1769 108° East 174 200 11,100 48 Climbing Los Center
Thu 02:38:22 PM 33.5889 -114.1233 108° East 172 198 11,100  Level Los Center
Thu 02:39:24 PM 33.5739 -114.0675 108° East 173 199 11,100  Level Los Center
Thu 02:40:26 PM 33.5575 -114.0131 110° East 178 205 11,100 -44 Level Los Center
Thu 02:41:39 PM 33.5389 -113.9461 108° East 177 204 11,000 -44 Descending Albuquerque Center
Thu 02:42:41 PM 33.5325 -113.8903 98° East 172 198 11,000  Level Albuquerque Center
Thu 02:43:42 PM 33.5292 -113.8222 93° East 170 196 11,000 -49 Level Albuquerque Center
Thu 02:44:44 PM 33.5253 -113.7647 95° East 170 196 10,900 -242 Descending Albuquerque Center
Thu 02:45:46 PM 33.5200 -113.7033 96° East 176 203 10,500 -435 Descending Albuquerque Center
Thu 02:46:48 PM 33.5158 -113.6417 95° East 180 207 10,000 -488 Descending Albuquerque Center
Thu 02:47:49 PM 33.5119 -113.5811 94° East 183 211 9,500 -488 Descending Albuquerque Center
Thu 02:48:51 PM 33.5078 -113.5222 95° East 181 208 9,000 -484 Descending Albuquerque Center
Thu 02:49:53 PM 33.5033 -113.4628 95° East 180 207 8,500 -532 Descending Albuquerque Center
Thu 02:50:55 PM 33.4981 -113.3892 95° East 182 209 7,900 -435 Descending Albuquerque Center
Thu 02:51:57 PM 33.4933 -113.3289 95° East 182 209 7,600 -341 Descending Albuquerque Center
Thu 02:52:58 PM 33.4881 -113.2686 96° East 182 209 7,200 -293 Descending Albuquerque Center
Thu 02:54:00 PM 33.4839 -113.2111 95° East 180 207 7,000 -97 Descending Albuquerque Center
Thu 02:55:02 PM 33.4800 -113.1553 95° East 175 201 7,000  Level Albuquerque Center
Thu 02:56:04 PM 33.4756 -113.1014 96° East 171 197 7,000  Level Albuquerque Center
Thu 02:57:05 PM 33.4714 -113.0478 95° East 166 191 7,000  Level Albuquerque Center
Thu 02:58:07 PM 33.4658 -112.9831 96° East 164 189 7,000  Level Albuquerque Center
Thu 02:58:27 PM 33.4656 -112.9658 91° East 164 189 7,000  Level Albuquerque Center
Thu 02:58:52 PM 33.4617 -112.9439 102° East 164 189 7,000  Level Albuquerque Center
Thu 02:59:10 PM 33.4617 -112.9289 90° East 164 189 7,000  Level Albuquerque Center
Thu 02:59:52 PM 33.4589 -112.8911 95° East 163 188 7,000  Level Albuquerque Center
Thu 03:00:12 PM 33.4575 -112.8722 95° East 166 191 7,000  Level Albuquerque Center
Thu 03:00:53 PM 33.4767 -112.8461 49° Northeast 157 181 7,000  Level Albuquerque Center
Thu 03:01:14 PM 33.4847 -112.8361 46° Northeast 161 185 7,000  Level Albuquerque Center
Thu 03:01:54 PM 33.5139 -112.8142 32° Northeast 161 185 7,000  Level Albuquerque Center
Thu 03:02:16 PM 33.5200 -112.8061 48° Northeast 157 181 7,000  Level Albuquerque Center
Thu 03:02:54 PM 33.5500 -112.7897 24° Northeast 157 181 7,000  Level Albuquerque Center
Thu 03:03:18 PM 33.5597 -112.7808 37° Northeast 161 185 7,000  Level Albuquerque Center
Thu 03:03:49 PM 33.5842 -112.7658 27° Northeast 159 183 7,000  Level Albuquerque Center
Thu 03:04:20 PM 33.6044 -112.7483 36° Northeast 159 183 7,000 -197 Level Albuquerque Center
Thu 03:04:50 PM 33.6158 -112.7275 57° Northeast 167 192 6,800 -492 Descending Albuquerque Center
Thu 03:05:21 PM 33.6275 -112.6989 64° Northeast 174 200 6,500 -600 Descending Albuquerque Center
Thu 03:05:50 PM 33.6408 -112.6753 56° Northeast 172 198 6,200 -484 Descending Albuquerque Center
Thu 03:06:23 PM 33.6497 -112.6503 67° East 167 192 6,000 -126 Descending Albuquerque Center
Thu 03:07:25 PM 33.6697 -112.6053 62° Northeast 147 169 6,000  Level Albuquerque Center
Thu 03:08:27 PM 33.6892 -112.5625 61° Northeast 137 158 6,000  Level Albuquerque Center
Thu 03:09:29 PM 33.7067 -112.5214 63° Northeast 138 159 6,000  Level Albuquerque Center
Thu 03:10:31 PM 33.7247 -112.4806 62° Northeast 139 160 6,000  Level Albuquerque Center
Thu 03:11:32 PM 33.7444 -112.4353 62° Northeast 142 163 6,000  Level Albuquerque Center
Thu 03:12:34 PM 33.7603 -112.3956 64° Northeast 134 154 6,000  Level Albuquerque Center
Thu 03:13:36 PM 33.7558 -112.3483 96° East 132 152 6,000 -290 Level Albuquerque Center
Thu 03:14:38 PM 33.7511 -112.3108 99° East 119 137 5,400 -581 Descending Albuquerque Center
Thu 03:15:40 PM 33.7394 -112.2794 114° Southeast 114 131 4,800 -823 Descending Albuquerque Center
Thu 03:16:42 PM 33.7222 -112.2364 116° Southeast 117 135 3,700 -774 Descending Albuquerque Center
Thu 03:17:44 PM 33.7078 -112.2025 117° Southeast 121 139 3,200 -585 Descending Albuquerque Center
Thu 03:18:45 PM 33.6922 -112.1647 116° Southeast 116 133 2,500 -488 Descending Albuquerque Center
Thu 03:19:47 PM 33.6817 -112.1303 110° East 115 132 2,200 -290 Descending Albuquerque Center
Thu 03:21:00 PM 33.6883 -112.0826 80° East  Level Estimated
Thu 03:28:00 PM 33.6883 -112.0826 140° Southeast  Level Estimated

Login

Don't have an account? Register now (free) for customized features, flight alerts, and more!